Time;durP1;ratioP1;P1;durP2;ratioP2;P2;SDS_P1;SDS_P2;PMS_P1;PMS_P2;Temp;Humidity;BMP_temperature;BMP_pressure;BME280_temperature;BME280_humidity;BME280_pressure;Samples;Min_cycle;Max_cycle;Signal;HPM_P1;HPM_P2
2021/12/08 00:02:12;;;;;;;2.83;2.70;;;;;;;3.41;86.20;99072.19;5114744;28;20167;-73
2021/12/08 00:04:39;;;;;;;2.47;2.47;;;;;;;3.44;85.82;99065.19;5114375;28;20190;-70
2021/12/08 00:07:06;;;;;;;2.77;2.67;;;;;;;3.55;85.27;99060.41;5114350;28;20226;-73
2021/12/08 00:14:56;;;;;;;2.33;2.20;;;;;;;3.66;83.89;99049.66;5114479;28;20668;-73
2021/12/08 00:17:23;;;;;;;3.73;2.53;;;;;;;3.65;83.70;99047.13;5114507;28;20208;-73
2021/12/08 00:19:50;;;;;;;2.00;2.00;;;;;;;3.67;83.15;99047.91;5114372;28;20175;-73
2021/12/08 00:22:17;;;;;;;3.10;2.77;;;;;;;3.75;83.44;99043.25;5114246;28;20197;-73
2021/12/08 00:24:44;;;;;;;2.33;2.30;;;;;;;3.85;82.54;99049.72;5113983;28;20194;-73
2021/12/08 00:27:11;;;;;;;2.57;2.57;;;;;;;3.98;82.09;99052.66;5114114;28;20752;-73
2021/12/08 00:29:38;;;;;;;3.27;3.07;;;;;;;3.95;82.04;99040.69;5096104;28;20680;-73
2021/12/08 00:32:07;;;;;;;2.47;2.37;;;;;;;3.93;82.19;99042.53;5096158;28;20185;-74
2021/12/08 00:34:34;;;;;;;3.10;2.60;;;;;;;4.08;81.80;99035.84;5113871;28;20185;-72
2021/12/08 00:37:01;;;;;;;2.17;2.17;;;;;;;4.06;81.57;99041.06;5113870;28;20657;-70
2021/12/08 00:39:28;;;;;;;2.30;2.30;;;;;;;4.15;81.44;99032.09;5114344;28;20172;-70
2021/12/08 00:41:54;;;;;;;2.20;2.00;;;;;;;4.18;80.69;99036.31;5095761;28;20673;-70
2021/12/08 00:44:21;;;;;;;3.70;2.43;;;;;;;4.29;81.07;99019.41;5113939;28;20185;-70
2021/12/08 00:46:48;;;;;;;2.40;2.40;;;;;;;4.34;80.78;99011.41;5113585;28;20201;-73
2021/12/08 00:49:16;;;;;;;2.30;2.20;;;;;;;4.51;80.44;99026.25;5114159;28;20274;-73
2021/12/08 00:51:43;;;;;;;3.23;2.70;;;;;;;4.51;80.33;99014.13;5114123;28;20204;-73
2021/12/08 00:54:10;;;;;;;2.07;2.07;;;;;;;4.56;80.44;99004.38;5114117;28;20169;-73
2021/12/08 00:56:36;;;;;;;2.00;2.00;;;;;;;4.66;79.82;99016.03;5113586;28;20572;-73
2021/12/08 00:59:03;;;;;;;2.70;2.60;;;;;;;4.74;79.52;99020.03;5113643;28;20211;-73
2021/12/08 01:01:30;;;;;;;1.90;1.90;;;;;;;4.73;80.27;99019.19;5113771;28;20184;-73
2021/12/08 01:03:58;;;;;;;2.73;2.60;;;;;;;4.74;80.77;99010.50;5114248;28;20654;-73
2021/12/08 01:06:25;;;;;;;2.03;2.03;;;;;;;4.66;80.80;99015.19;5113533;28;20201;-73
2021/12/08 01:08:51;;;;;;;2.30;2.20;;;;;;;4.64;80.93;99015.28;5113609;28;20208;-73
2021/12/08 01:11:19;;;;;;;2.03;1.93;;;;;;;4.62;80.85;99022.25;5113643;28;20188;-73
2021/12/08 01:13:47;;;;;;;2.13;2.13;;;;;;;4.67;81.07;99025.50;5113634;28;20189;-73
2021/12/08 01:16:17;;;;;;;2.60;2.40;;;;;;;4.66;81.60;99028.16;5113027;28;20196;-73
2021/12/08 01:18:43;;;;;;;2.30;2.17;;;;;;;4.64;81.49;99028.25;5113819;28;20566;-73
2021/12/08 01:21:12;;;;;;;2.07;2.07;;;;;;;4.58;81.59;99031.09;5113485;28;20217;-73
2021/12/08 01:23:39;;;;;;;2.40;2.30;;;;;;;4.62;81.51;99024.84;5113559;28;20181;-69
2021/12/08 01:26:07;;;;;;;2.50;2.30;;;;;;;4.63;82.04;99023.94;5113381;28;20193;-70
2021/12/08 01:28:34;;;;;;;2.40;2.20;;;;;;;4.55;81.96;99033.81;5113543;28;20193;-69
2021/12/08 01:31:01;;;;;;;2.17;2.17;;;;;;;4.45;82.85;99040.31;5113446;28;20179;-69
2021/12/08 01:33:32;;;;;;;2.07;2.00;;;;;;;4.49;82.96;99041.84;5113692;28;20711;-69
2021/12/08 01:36:04;;;;;;;2.33;2.17;;;;;;;4.44;83.12;99017.91;5113508;28;20192;-70
2021/12/08 01:38:32;;;;;;;5.90;2.20;;;;;;;4.46;83.24;99021.25;5113406;28;20220;-71
2021/12/08 01:40:58;;;;;;;2.50;2.40;;;;;;;4.41;83.56;99026.63;5113695;28;20192;-73
2021/12/08 01:43:28;;;;;;;2.50;2.40;;;;;;;4.38;84.04;99019.00;5113417;28;20173;-73
2021/12/08 01:46:03;;;;;;;5.00;2.57;;;;;;;4.42;83.42;99036.06;5115271;28;20209;-73
2021/12/08 01:48:34;;;;;;;2.20;2.20;;;;;;;4.49;83.35;99035.81;5098946;28;20219;-73
2021/12/08 01:51:10;;;;;;;2.07;2.07;;;;;;;4.47;83.27;99040.22;5117224;28;20179;-73
2021/12/08 01:53:42;;;;;;;2.53;2.43;;;;;;;4.44;83.53;99043.81;5117541;28;20542;-70
2021/12/08 01:56:10;;;;;;;2.60;2.57;;;;;;;4.48;83.21;99034.97;5116987;28;20550;-70
2021/12/08 01:58:37;;;;;;;2.50;2.47;;;;;;;4.44;83.16;99022.25;5116787;28;20720;-69
2021/12/08 02:01:07;;;;;;;2.63;2.43;;;;;;;4.44;83.44;99028.25;5117069;28;20181;-69
2021/12/08 02:03:34;;;;;;;2.80;2.70;;;;;;;4.45;83.48;99022.16;5116981;28;20542;-70
2021/12/08 02:06:03;;;;;;;2.50;2.50;;;;;;;4.56;83.14;99045.84;5116804;28;20214;-70
2021/12/08 02:08:30;;;;;;;3.27;3.17;;;;;;;4.61;82.26;99030.09;5117354;28;20204;-70
2021/12/08 02:10:58;;;;;;;2.90;2.80;;;;;;;4.62;82.42;99037.81;5116896;28;20195;-70
2021/12/08 02:13:25;;;;;;;2.53;2.53;;;;;;;4.65;82.37;99045.47;5116810;28;20204;-70
2021/12/08 02:15:51;;;;;;;2.53;2.40;;;;;;;4.61;83.04;99030.94;5116505;28;20201;-70
2021/12/08 02:18:18;;;;;;;2.40;2.30;;;;;;;4.54;83.45;99031.28;5116772;28;20310;-70
2021/12/08 02:20:48;;;;;;;2.67;2.67;;;;;;;4.58;83.33;99025.06;5116664;28;20199;-70
2021/12/08 02:23:16;;;;;;;2.43;2.43;;;;;;;4.63;82.98;99028.28;5116618;28;20200;-70
2021/12/08 02:25:45;;;;;;;3.10;3.00;;;;;;;4.68;82.76;99045.31;5116656;28;20201;-70
2021/12/08 02:28:12;;;;;;;3.33;3.27;;;;;;;4.75;82.76;99045.06;5116413;28;20213;-70
2021/12/08 02:30:54;;;;;;;2.63;2.53;;;;;;;4.63;83.09;99049.00;5116460;28;20190;-70
2021/12/08 02:47:30;;;;;;;2.10;2.10;;;;;;;4.77;83.52;99051.84;5115625;28;20216;-70
2021/12/08 02:49:58;;;;;;;2.33;2.30;;;;;;;4.76;83.58;99042.38;5115870;28;20199;-70
2021/12/08 02:52:25;;;;;;;2.60;2.50;;;;;;;4.90;83.06;99044.34;5116082;28;20203;-70
2021/12/08 02:54:52;;;;;;;2.33;2.20;;;;;;;4.91;83.13;99040.84;5116577;28;20535;-70
2021/12/08 02:57:25;;;;;;;2.00;1.90;;;;;;;4.93;83.38;99036.47;5114469;28;20220;-70
2021/12/08 02:59:52;;;;;;;3.03;2.93;;;;;;;5.04;82.84;99049.75;5116832;28;20173;-70
2021/12/08 03:02:18;;;;;;;3.10;2.97;;;;;;;5.12;82.76;99058.03;5116075;28;20197;-70
2021/12/08 03:04:46;;;;;;;2.60;2.50;;;;;;;5.16;82.50;99059.59;5115805;28;20181;-70
2021/12/08 03:07:13;;;;;;;2.83;2.73;;;;;;;5.13;82.86;99062.31;5115206;28;20217;-70
2021/12/08 03:09:39;;;;;;;2.43;2.43;;;;;;;5.19;82.68;99058.59;5115697;28;20185;-70
2021/12/08 03:12:06;;;;;;;2.33;2.33;;;;;;;5.12;83.02;99055.44;5115715;28;20204;-71
2021/12/08 03:14:33;;;;;;;1.63;1.63;;;;;;;5.14;82.93;99057.97;5116233;28;20235;-70
2021/12/08 03:17:06;;;;;;;2.13;1.67;;;;;;;5.16;82.83;99058.75;5115240;28;20181;-70
2021/12/08 03:19:33;;;;;;;2.20;2.20;;;;;;;5.27;82.58;99072.06;5116130;28;20188;-70
2021/12/08 03:22:03;;;;;;;2.53;2.43;;;;;;;5.24;82.83;99067.84;5115422;28;20185;-70
2021/12/08 03:24:33;;;;;;;2.10;2.10;;;;;;;5.40;82.20;99057.59;5115696;28;20192;-70
2021/12/08 03:29:36;;;;;;;2.17;2.17;;;;;;;5.37;82.67;99072.50;5115370;28;20181;-70
2021/12/08 03:32:11;;;;;;;3.33;3.33;;;;;;;5.47;82.67;99079.75;5115643;28;20188;-73
2021/12/08 03:34:42;;;;;;;2.10;2.00;;;;;;;5.43;82.55;99083.44;5115248;28;20184;-73
2021/12/08 03:37:10;;;;;;;2.73;2.73;;;;;;;5.52;82.58;99076.97;5114981;28;20224;-73
2021/12/08 03:39:40;;;;;;;6.17;1.60;;;;;;;5.55;82.59;99075.97;5115448;28;20517;-73
2021/12/08 03:42:07;;;;;;;5.93;1.93;;;;;;;5.62;82.02;99082.53;5115690;28;20181;-73
2021/12/08 03:44:34;;;;;;;2.30;2.03;;;;;;;5.63;81.97;99076.44;5115053;28;20673;-73
2021/12/08 03:47:04;;;;;;;1.70;1.70;;;;;;;5.65;82.10;99087.63;5114584;28;20212;-73
2021/12/08 03:49:31;;;;;;;2.47;2.40;;;;;;;5.67;81.85;99094.41;5115758;28;20204;-73
2021/12/08 03:52:00;;;;;;;2.07;1.97;;;;;;;5.68;81.88;99096.06;5114929;28;20177;-73
2021/12/08 03:54:27;;;;;;;1.50;1.50;;;;;;;5.63;81.94;99092.84;5115379;28;20565;-73
2021/12/08 03:56:54;;;;;;;1.93;1.93;;;;;;;5.71;82.00;99093.31;5114091;28;20189;-73
2021/12/08 03:59:20;;;;;;;3.13;1.97;;;;;;;5.73;82.00;99096.72;5115332;28;20201;-73
2021/12/08 04:01:47;;;;;;;2.03;2.00;;;;;;;5.67;82.11;99102.19;5114419;28;20193;-73
2021/12/08 04:04:14;;;;;;;1.50;1.50;;;;;;;5.72;82.14;99099.38;5114576;28;20273;-73
2021/12/08 04:09:24;;;;;;;2.03;2.00;;;;;;;5.64;82.43;99094.53;5114720;28;20205;-73
2021/12/08 04:11:50;;;;;;;2.77;2.00;;;;;;;5.63;82.52;99105.84;5114832;28;20184;-73
2021/12/08 04:14:19;;;;;;;1.67;1.60;;;;;;;5.59;82.68;99103.47;5114367;28;20196;-73
2021/12/08 04:16:54;;;;;;;1.80;1.80;;;;;;;5.67;82.68;99102.19;5114136;28;20193;-72
2021/12/08 04:19:22;;;;;;;1.90;1.90;;;;;;;5.70;82.25;99091.66;5114354;28;20173;-73
2021/12/08 04:21:51;;;;;;;4.37;2.33;;;;;;;5.62;82.70;99098.97;5114149;28;20208;-73
2021/12/08 04:24:23;;;;;;;2.37;2.37;;;;;;;5.63;82.56;99092.84;5114407;28;20172;-73
2021/12/08 04:26:57;;;;;;;2.17;2.07;;;;;;;5.60;82.70;99103.41;5113943;28;20188;-73
2021/12/08 04:29:29;;;;;;;3.50;2.13;;;;;;;5.64;82.72;99097.13;5114241;28;20169;-73
2021/12/08 04:31:57;;;;;;;2.17;2.07;;;;;;;5.64;82.71;99099.72;5114206;28;20584;-73
2021/12/08 04:34:29;;;;;;;2.00;2.00;;;;;;;5.55;83.08;99091.53;5114372;28;20181;-73
2021/12/08 04:37:01;;;;;;;2.20;2.10;;;;;;;5.68;82.73;99098.69;5113734;28;20182;-73
2021/12/08 04:39:53;;;;;;;2.27;1.93;;;;;;;5.65;82.77;99100.59;5114349;28;20188;-73
2021/12/08 04:42:31;;;;;;;1.83;1.77;;;;;;;5.72;82.58;99094.19;5114022;28;20177;-73
2021/12/08 04:45:06;;;;;;;2.40;2.20;;;;;;;5.74;82.60;99093.19;5114500;28;20533;-73
2021/12/08 04:47:46;;;;;;;2.13;2.10;;;;;;;5.70;82.97;99102.03;5113529;28;20577;-70
2021/12/08 05:01:25;;;;;;;2.93;2.73;;;;;;;5.73;83.14;99121.84;5102400;28;20247;-73
2021/12/08 05:09:16;;;;;;;2.17;2.03;;;;;;;5.69;83.53;99125.47;5113780;28;20216;-73
2021/12/08 05:11:53;;;;;;;2.47;2.47;;;;;;;5.74;83.42;99132.16;5113667;28;20168;-73
2021/12/08 05:14:27;;;;;;;2.17;2.07;;;;;;;5.71;83.28;99137.47;5114270;28;20165;-73
2021/12/08 05:17:00;;;;;;;3.60;2.20;;;;;;;5.63;83.64;99133.56;5114163;28;20181;-71
2021/12/08 05:19:31;;;;;;;1.77;1.77;;;;;;;5.64;83.88;99138.66;5113692;28;20192;-70
2021/12/08 05:22:04;;;;;;;1.70;1.60;;;;;;;5.69;83.74;99143.66;5117495;28;20614;-73
2021/12/08 05:24:35;;;;;;;2.17;2.07;;;;;;;5.72;83.60;99152.16;5118343;28;20173;-73
2021/12/08 05:27:15;;;;;;;2.77;2.50;;;;;;;5.73;83.55;99156.44;5118668;28;20556;-73
2021/12/08 05:29:48;;;;;;;2.47;2.30;;;;;;;5.71;83.70;99157.41;5117701;28;20177;-73
2021/12/08 05:32:15;;;;;;;3.97;3.67;;;;;;;5.75;83.52;99164.16;5116989;28;20189;-73
2021/12/08 05:34:43;;;;;;;1.77;1.70;;;;;;;5.70;83.75;99153.97;5117860;28;20585;-73
2021/12/08 05:37:12;;;;;;;2.10;2.10;;;;;;;5.60;83.88;99160.50;5117467;28;20558;-73
2021/12/08 05:39:38;;;;;;;2.50;2.40;;;;;;;5.71;83.61;99162.59;5117818;28;20185;-73
2021/12/08 05:42:09;;;;;;;6.77;2.47;;;;;;;5.69;83.56;99172.22;5117511;28;20185;-73
2021/12/08 05:44:37;;;;;;;3.47;3.20;;;;;;;5.58;84.09;99169.28;5117694;28;20530;-70
2021/12/08 05:47:10;;;;;;;3.30;2.77;;;;;;;5.60;84.08;99175.25;5117191;28;20180;-71
2021/12/08 05:49:37;;;;;;;2.57;2.27;;;;;;;5.62;83.66;99176.84;5117323;28;20177;-70
2021/12/08 05:52:04;;;;;;;1.87;1.87;;;;;;;5.60;83.94;99173.50;5116922;28;20185;-73
2021/12/08 05:54:40;;;;;;;4.03;2.03;;;;;;;5.62;83.67;99171.66;5117350;28;20575;-71
2021/12/08 05:57:16;;;;;;;6.10;2.53;;;;;;;5.60;83.93;99177.84;5117229;28;20689;-70
2021/12/08 05:59:45;;;;;;;2.93;1.97;;;;;;;5.61;83.48;99175.16;5117298;28;20168;-70
2021/12/08 06:02:16;;;;;;;2.13;1.93;;;;;;;5.59;83.70;99171.81;5116740;28;20193;-70
2021/12/08 06:04:44;;;;;;;2.40;2.20;;;;;;;5.59;83.57;99166.63;5098633;28;20185;-73
2021/12/08 06:07:12;;;;;;;2.63;2.63;;;;;;;5.43;84.02;99170.81;5116803;28;20205;-71
2021/12/08 06:09:40;;;;;;;3.70;3.40;;;;;;;5.48;83.74;99174.03;5116878;28;20572;-71
2021/12/08 06:12:09;;;;;;;2.93;2.90;;;;;;;5.45;84.24;99179.38;5116626;28;20193;-70
2021/12/08 06:14:37;;;;;;;4.47;2.93;;;;;;;5.47;84.26;99175.78;5117360;28;20170;-73
2021/12/08 06:17:09;;;;;;;3.70;2.50;;;;;;;5.52;84.07;99173.00;5116639;28;20204;-70
2021/12/08 06:19:40;;;;;;;3.27;3.00;;;;;;;5.46;84.53;99188.84;5117045;28;20185;-73
2021/12/08 06:22:09;;;;;;;8.80;3.13;;;;;;;5.43;84.52;99197.63;5098321;28;20204;-73
2021/12/08 06:24:36;;;;;;;4.30;4.20;;;;;;;5.38;84.93;99201.34;5116496;28;20182;-73
2021/12/08 06:27:03;;;;;;;5.00;3.47;;;;;;;5.40;85.04;99192.56;5115944;28;20557;-73
2021/12/08 06:29:31;;;;;;;3.47;3.20;;;;;;;5.45;84.93;99194.97;5116377;28;20204;-73
2021/12/08 06:31:59;;;;;;;2.50;2.40;;;;;;;5.54;84.44;99194.53;5116087;28;20599;-73
2021/12/08 06:34:27;;;;;;;2.77;2.57;;;;;;;5.41;85.11;99194.22;5116325;28;20181;-73
2021/12/08 06:37:05;;;;;;;2.43;2.23;;;;;;;5.42;84.93;99200.25;5116238;28;20181;-74
2021/12/08 06:39:39;;;;;;;4.33;3.00;;;;;;;5.36;85.03;99205.72;5116874;28;20173;-74
2021/12/08 06:42:14;;;;;;;4.23;2.40;;;;;;;5.28;85.24;99207.81;5116614;28;20176;-73
2021/12/08 06:44:46;;;;;;;3.10;2.90;;;;;;;5.22;85.58;99193.38;5116272;28;20180;-73
2021/12/08 06:47:17;;;;;;;3.87;3.50;;;;;;;5.25;85.69;99198.44;5116736;28;20706;-71
2021/12/08 06:49:45;;;;;;;7.33;3.27;;;;;;;5.25;85.63;99214.00;5116453;28;20173;-73
2021/12/08 06:52:19;;;;;;;2.70;2.57;;;;;;;5.21;85.82;99210.72;5116072;28;20552;-74
2021/12/08 06:54:55;;;;;;;4.97;2.70;;;;;;;5.23;85.43;99229.63;5115971;28;20177;-74
2021/12/08 06:57:27;;;;;;;2.93;2.73;;;;;;;5.31;84.91;99215.47;5116285;28;20212;-73
2021/12/08 07:00:00;;;;;;;7.53;2.70;;;;;;;5.44;84.53;99216.63;5116481;28;20165;-74
2021/12/08 07:02:51;;;;;;;2.90;2.70;;;;;;;5.45;84.34;99220.91;5116470;28;20587;-73
2021/12/08 07:05:52;;;;;;;4.03;3.37;;;;;;;5.51;83.69;99218.88;5116439;28;20182;-70
2021/12/08 07:08:18;;;;;;;2.90;2.63;;;;;;;5.48;83.63;99215.56;5115767;28;20216;-73
2021/12/08 07:10:47;;;;;;;5.20;3.07;;;;;;;5.52;83.66;99211.94;5115967;28;20185;-73
2021/12/08 07:13:25;;;;;;;2.07;1.97;;;;;;;5.45;83.87;99224.34;5097379;28;20185;-73
2021/12/08 07:16:04;;;;;;;5.93;2.67;;;;;;;5.48;83.88;99231.97;5097621;28;20196;-71
2021/12/08 07:18:57;;;;;;;2.40;2.30;;;;;;;5.52;83.92;99232.69;5115555;28;20196;-71
2021/12/08 07:21:28;;;;;;;2.90;2.70;;;;;;;5.49;84.15;99228.47;5115484;28;20197;-71
2021/12/08 07:24:00;;;;;;;2.47;2.37;;;;;;;5.49;84.56;99225.03;5115544;28;20174;-74
2021/12/08 07:26:30;;;;;;;2.53;2.43;;;;;;;5.46;84.62;99244.19;5115798;28;20173;-70
2021/12/08 07:28:59;;;;;;;2.70;2.60;;;;;;;5.56;84.30;99239.44;5115798;28;20216;-70
2021/12/08 07:31:31;;;;;;;3.20;2.80;;;;;;;5.52;84.58;99243.94;5115549;28;20526;-71
2021/12/08 07:34:04;;;;;;;3.37;3.07;;;;;;;5.59;84.47;99243.66;5115773;28;20534;-71
2021/12/08 07:36:34;;;;;;;5.03;2.57;;;;;;;5.61;83.89;99253.06;5115366;28;20185;-73
2021/12/08 07:39:06;;;;;;;3.77;2.83;;;;;;;5.61;83.88;99258.25;5114925;28;20241;-70
2021/12/08 07:41:37;;;;;;;2.80;2.70;;;;;;;5.57;83.08;99256.69;5115107;28;20169;-74
2021/12/08 07:44:09;;;;;;;8.93;2.80;;;;;;;5.70;82.27;99262.19;5096133;28;20284;-71
2021/12/08 07:47:02;;;;;;;2.80;2.23;;;;;;;5.70;82.17;99263.03;5115218;28;20537;-70
2021/12/08 07:49:35;;;;;;;3.83;2.17;;;;;;;5.68;81.95;99269.22;5115281;28;20193;-74
2021/12/08 07:52:13;;;;;;;3.37;3.03;;;;;;;5.63;82.05;99276.34;5115134;28;20185;-74
2021/12/08 07:54:41;;;;;;;2.73;2.40;;;;;;;5.65;82.08;99262.41;5115339;28;20184;-74
2021/12/08 07:57:12;;;;;;;3.23;2.70;;;;;;;5.62;82.01;99266.88;5114610;28;20213;-74
2021/12/08 07:59:41;;;;;;;2.47;2.20;;;;;;;5.66;81.84;99271.03;5115271;28;20165;-74
2021/12/08 08:02:09;;;;;;;2.73;2.63;;;;;;;5.57;82.29;99268.81;5114713;28;20208;-74
2021/12/08 08:04:40;;;;;;;2.50;2.43;;;;;;;5.56;82.25;99280.13;5114539;28;20178;-74
2021/12/08 08:07:09;;;;;;;3.17;2.93;;;;;;;5.59;82.31;99288.63;5114466;28;20234;-74
2021/12/08 08:09:42;;;;;;;5.90;2.70;;;;;;;5.45;82.85;99294.44;5114373;28;20201;-70
2021/12/08 08:12:16;;;;;;;2.30;2.20;;;;;;;5.56;82.53;99280.97;5096399;28;20177;-70
2021/12/08 08:14:51;;;;;;;3.23;3.03;;;;;;;5.48;82.46;99293.44;5114497;28;20166;-70
2021/12/08 08:17:25;;;;;;;6.80;3.30;;;;;;;5.50;82.16;99299.41;5097072;28;20216;-71
2021/12/08 08:19:52;;;;;;;10.23;3.83;;;;;;;5.51;82.24;99304.56;5096067;28;20189;-71
2021/12/08 08:22:23;;;;;;;2.67;2.57;;;;;;;5.44;82.32;99303.13;5114272;28;20181;-71
2021/12/08 08:24:52;;;;;;;6.23;2.97;;;;;;;5.61;81.51;99301.53;5114352;28;20166;-70
2021/12/08 08:27:20;;;;;;;5.70;2.80;;;;;;;5.66;81.32;99303.03;5114182;28;20212;-70
2021/12/08 08:29:48;;;;;;;2.67;2.67;;;;;;;5.57;81.58;99293.03;5114668;28;20527;-70
2021/12/08 08:32:22;;;;;;;5.90;3.23;;;;;;;5.59;81.28;99295.59;5114163;28;20189;-70
2021/12/08 08:34:55;;;;;;;3.23;3.00;;;;;;;5.58;81.47;99299.94;5114117;28;20233;-70
2021/12/08 08:37:22;;;;;;;4.57;3.20;;;;;;;5.52;81.14;99297.59;5114557;28;20228;-71
2021/12/08 08:39:55;;;;;;;3.57;3.27;;;;;;;5.65;80.81;99305.69;5113877;28;20593;-71
2021/12/08 08:42:32;;;;;;;3.43;3.10;;;;;;;5.63;80.88;99308.34;5114634;28;20181;-71
2021/12/08 08:45:31;;;;;;;3.30;2.97;;;;;;;5.67;80.60;99309.91;5114251;28;20276;-71
2021/12/08 08:47:59;;;;;;;3.33;3.13;;;;;;;5.62;80.83;99305.81;5103130;28;20232;-74
2021/12/08 08:50:43;;;;;;;8.87;3.13;;;;;;;5.59;80.93;99309.41;5114463;28;20192;-71
2021/12/08 08:53:10;;;;;;;5.80;3.23;;;;;;;5.63;80.70;99317.88;5113886;28;20176;-74
2021/12/08 08:55:46;;;;;;;7.17;3.20;;;;;;;5.70;80.77;99327.09;5112833;28;20189;-75
2021/12/08 08:58:14;;;;;;;3.43;2.93;;;;;;;5.72;80.27;99331.34;5113746;28;20226;-75
2021/12/08 09:00:46;;;;;;;8.97;3.17;;;;;;;5.76;80.33;99321.63;5113762;28;20658;-75
2021/12/08 09:03:21;;;;;;;3.00;2.90;;;;;;;5.83;79.79;99315.25;5113966;28;20181;-74
2021/12/08 09:05:57;;;;;;;4.73;2.77;;;;;;;5.99;79.21;99311.09;5113985;28;20180;-74
2021/12/08 09:08:26;;;;;;;2.60;2.50;;;;;;;5.87;79.96;99303.00;5113744;28;20209;-74
2021/12/08 09:11:10;;;;;;;5.40;3.60;;;;;;;5.90;79.78;99298.50;5113895;28;20185;-74
2021/12/08 09:13:42;;;;;;;6.90;3.43;;;;;;;5.88;79.65;99307.28;5113568;28;20637;-74
2021/12/08 09:16:15;;;;;;;2.53;2.40;;;;;;;5.89;79.84;99321.94;5113863;28;20535;-74
2021/12/08 09:19:03;;;;;;;3.37;2.87;;;;;;;5.86;80.50;99324.66;5113845;28;20209;-74
2021/12/08 09:21:49;;;;;;;3.13;2.93;;;;;;;6.00;79.81;99317.13;5113621;28;20200;-74
2021/12/08 09:24:46;;;;;;;4.13;3.93;;;;;;;5.97;79.42;99318.13;5113515;28;20233;-74
2021/12/08 09:27:18;;;;;;;7.83;3.83;;;;;;;6.05;78.63;99317.78;5113181;28;20300;-74
2021/12/08 09:29:56;;;;;;;5.60;3.77;;;;;;;5.98;79.11;99326.75;5113588;28;20201;-71
2021/12/08 09:32:32;;;;;;;5.33;3.57;;;;;;;6.01;78.98;99331.81;5114040;28;20177;-71
2021/12/08 09:35:05;;;;;;;2.80;2.80;;;;;;;6.01;78.64;99324.03;5114000;28;20192;-73
2021/12/08 09:37:36;;;;;;;2.50;2.40;;;;;;;6.02;78.52;99346.50;5113649;28;20212;-70
2021/12/08 09:40:26;;;;;;;2.57;2.47;;;;;;;6.07;77.89;99342.78;5114007;28;20175;-74
2021/12/08 09:42:57;;;;;;;2.80;2.60;;;;;;;6.12;78.42;99352.97;5113972;28;20188;-73
2021/12/08 09:45:37;;;;;;;4.50;2.60;;;;;;;6.12;78.52;99336.53;5113549;28;20619;-70
2021/12/08 09:48:06;;;;;;;2.83;2.73;;;;;;;6.14;78.05;99343.31;5113529;28;20205;-70
2021/12/08 09:50:34;;;;;;;7.50;3.30;;;;;;;6.07;78.53;99337.59;5113294;28;20188;-73
2021/12/08 09:53:01;;;;;;;8.77;2.60;;;;;;;6.17;78.54;99335.41;5113232;28;20188;-74
2021/12/08 09:55:28;;;;;;;6.27;2.90;;;;;;;6.18;78.24;99329.28;5113555;28;20174;-74
2021/12/08 09:57:55;;;;;;;2.77;2.57;;;;;;;6.17;77.80;99325.00;5113426;28;20214;-74
2021/12/08 10:00:26;;;;;;;3.20;2.63;;;;;;;6.31;77.89;99327.81;5113232;28;20608;-71
2021/12/08 10:02:58;;;;;;;3.57;2.83;;;;;;;6.30;76.87;99320.94;5113527;28;20689;-74
2021/12/08 10:05:28;;;;;;;3.23;3.00;;;;;;;6.25;77.71;99332.47;5113476;28;20220;-74
2021/12/08 10:07:56;;;;;;;2.20;2.20;;;;;;;6.23;77.41;99335.13;5117369;28;20212;-71
2021/12/08 10:10:23;;;;;;;3.70;3.40;;;;;;;6.19;77.49;99341.38;5116801;28;20712;-71
2021/12/08 10:12:49;;;;;;;3.50;2.33;;;;;;;6.34;76.78;99332.03;5117323;28;20185;-71
2021/12/08 10:15:20;;;;;;;5.80;2.90;;;;;;;6.27;77.02;99339.25;5116810;28;20193;-70
2021/12/08 10:17:47;;;;;;;4.70;2.57;;;;;;;6.26;77.01;99340.19;5117059;28;20205;-71
2021/12/08 10:20:25;;;;;;;2.63;2.50;;;;;;;6.30;76.88;99339.13;5116589;28;20181;-74
2021/12/08 10:23:23;;;;;;;7.27;2.17;;;;;;;6.32;76.54;99355.50;5116973;28;20182;-74
2021/12/08 10:26:12;;;;;;;5.67;2.20;;;;;;;6.34;76.63;99355.41;5116941;28;20178;-74
2021/12/08 10:28:40;;;;;;;2.80;2.60;;;;;;;6.40;76.40;99351.69;5116676;28;20212;-74
2021/12/08 10:31:27;;;;;;;6.53;2.20;;;;;;;6.42;76.32;99355.91;5098223;28;20201;-70
2021/12/08 10:34:14;;;;;;;4.77;2.43;;;;;;;6.53;75.89;99358.03;5116658;28;20248;-70
2021/12/08 10:37:00;;;;;;;5.13;2.07;;;;;;;6.48;75.97;99354.78;5098029;28;20189;-70
2021/12/08 10:39:36;;;;;;;6.33;1.80;;;;;;;6.49;75.18;99354.72;5098255;28;20252;-70
2021/12/08 10:42:03;;;;;;;5.10;2.63;;;;;;;6.51;75.31;99357.25;5116319;28;20184;-70
2021/12/08 10:45:21;;;;;;;3.03;2.63;;;;;;;6.59;74.93;99368.16;5116625;28;20252;-70
2021/12/08 10:47:50;;;;;;;2.73;2.30;;;;;;;6.44;74.49;99368.88;5116266;28;20212;-70
2021/12/08 10:56:14;;;;;;;3.63;2.50;;;;;;;6.54;74.43;99360.56;5116339;28;20173;-73
2021/12/08 10:58:49;;;;;;;6.83;3.47;;;;;;;6.55;74.68;99361.38;5116145;28;20209;-73
2021/12/08 11:01:16;;;;;;;3.43;2.70;;;;;;;6.52;74.82;99362.38;5116270;28;20256;-70
2021/12/08 11:03:45;;;;;;;7.10;2.30;;;;;;;6.66;74.62;99364.34;5115871;28;20658;-70
2021/12/08 11:06:15;;;;;;;3.83;2.83;;;;;;;6.56;75.37;99352.66;5116393;28;20195;-70
2021/12/08 11:08:47;;;;;;;2.93;2.83;;;;;;;6.57;75.06;99354.34;5097393;28;20224;-73
2021/12/08 11:11:24;;;;;;;2.43;2.23;;;;;;;6.55;75.25;99348.38;5116076;28;20174;-74
2021/12/08 11:13:53;;;;;;;3.37;2.53;;;;;;;6.62;74.28;99350.63;5097502;28;20548;-74
2021/12/08 11:16:27;;;;;;;3.70;2.40;;;;;;;6.65;74.63;99352.25;5115894;28;20527;-74
2021/12/08 11:19:10;;;;;;;5.43;3.30;;;;;;;6.67;73.92;99345.22;5114761;28;20294;-74
2021/12/08 11:21:40;;;;;;;4.60;2.33;;;;;;;6.67;73.44;99347.81;5080591;28;20212;-74
2021/12/08 11:24:45;;;;;;;6.23;2.57;;;;;;;6.69;73.87;99358.13;5115979;28;20180;-74
2021/12/08 11:27:28;;;;;;;3.30;2.63;;;;;;;6.77;73.52;99361.22;5080255;28;20208;-73
2021/12/08 11:29:55;;;;;;;2.53;2.43;;;;;;;6.73;73.96;99368.34;5115923;28;20193;-74
2021/12/08 11:32:24;;;;;;;5.23;2.33;;;;;;;6.74;74.28;99372.63;5115576;28;20189;-70
2021/12/08 11:34:51;;;;;;;2.37;2.13;;;;;;;6.76;74.29;99375.16;5115266;28;20236;-70
2021/12/08 11:37:21;;;;;;;2.90;2.60;;;;;;;6.78;74.48;99379.34;5115179;28;20205;-70
2021/12/08 11:39:52;;;;;;;4.70;2.97;;;;;;;6.75;73.88;99379.50;5115770;28;20610;-70
2021/12/08 11:42:31;;;;;;;6.30;2.70;;;;;;;6.69;73.83;99382.38;5115309;28;20542;-70
2021/12/08 11:45:02;;;;;;;4.53;2.90;;;;;;;6.76;73.69;99385.56;5115099;28;20173;-70
2021/12/08 11:47:34;;;;;;;3.63;2.53;;;;;;;6.78;74.08;99394.13;5114994;28;20205;-70
2021/12/08 11:50:11;;;;;;;2.47;2.40;;;;;;;6.77;73.21;99388.06;5115731;28;20535;-70
2021/12/08 11:52:38;;;;;;;4.83;2.93;;;;;;;6.72;72.67;99390.06;5115606;28;20215;-70
2021/12/08 11:55:17;;;;;;;7.73;2.30;;;;;;;6.71;73.04;99390.97;5115432;28;20189;-74
2021/12/08 11:57:48;;;;;;;2.73;2.37;;;;;;;6.77;73.25;99385.47;5115356;28;20212;-70
2021/12/08 12:00:21;;;;;;;5.97;2.87;;;;;;;6.80;74.07;99379.31;5114831;28;20227;-70
2021/12/08 12:02:55;;;;;;;7.30;2.93;;;;;;;6.75;74.05;99379.50;5115311;28;20611;-71
2021/12/08 12:05:37;;;;;;;4.93;2.77;;;;;;;6.87;74.43;99380.69;5114675;28;20536;-73
2021/12/08 12:08:07;;;;;;;2.73;2.53;;;;;;;6.80;73.12;99374.09;5114650;28;20708;-73
2021/12/08 12:10:37;;;;;;;5.23;3.30;;;;;;;6.81;73.37;99383.59;5114562;28;20672;-73
2021/12/08 12:13:08;;;;;;;3.13;2.90;;;;;;;6.87;72.94;99376.34;5114478;28;20199;-70
2021/12/08 12:15:36;;;;;;;3.33;3.07;;;;;;;6.72;72.87;99371.03;5114709;28;20239;-73
2021/12/08 12:18:03;;;;;;;4.93;2.43;;;;;;;6.74;73.22;99377.81;5114350;28;20201;-73
2021/12/08 12:20:41;;;;;;;3.90;3.13;;;;;;;6.69;73.18;99373.75;5114284;28;20194;-70
2021/12/08 12:23:26;;;;;;;7.57;3.70;;;;;;;6.73;73.84;99375.31;5114640;28;20620;-73
2021/12/08 12:26:01;;;;;;;3.53;3.23;;;;;;;6.62;74.71;99383.59;5114336;28;20173;-74
2021/12/08 12:28:38;;;;;;;3.70;3.30;;;;;;;6.82;73.15;99388.72;5114407;28;20209;-74
2021/12/08 12:31:19;;;;;;;3.07;2.80;;;;;;;6.94;72.73;99386.44;5114479;28;20189;-73
2021/12/08 12:33:49;;;;;;;4.10;2.67;;;;;;;6.78;72.42;99381.94;5114898;28;20174;-73
2021/12/08 12:36:30;;;;;;;17.70;3.47;;;;;;;6.71;72.66;99388.34;5114668;28;20185;-74
2021/12/08 12:39:18;;;;;;;3.80;2.40;;;;;;;6.70;72.02;99386.66;5114013;28;20205;-73
2021/12/08 12:42:11;;;;;;;8.53;3.20;;;;;;;6.75;72.48;99389.06;5114202;28;20189;-75
2021/12/08 12:44:41;;;;;;;4.67;2.43;;;;;;;6.69;72.47;99382.38;5114071;28;20174;-74
2021/12/08 12:47:26;;;;;;;3.03;2.77;;;;;;;6.72;72.05;99390.06;5114210;28;20270;-73
2021/12/08 12:50:16;;;;;;;2.73;2.63;;;;;;;6.84;71.83;99389.47;5114145;28;20203;-73
2021/12/08 12:52:49;;;;;;;18.03;3.27;;;;;;;6.83;71.98;99397.34;5114197;28;20176;-70